Port Penn, Delaware
Current Conditions -  °F | °C
As of 4:51 AM on Friday 31 Oct 2014 (Local Time) from KILG Reporting Station
Scattered Clouds Scattered Clouds  
Wind Chill: 41°   Ceiling: Unl
Heat Index: 41°   Visibility: 10mi
Dew Point: 35°   Wind: 0mph
Humidity: 79%   Direction: NA
Pressure: 30.02"   Gusts: NA
Location:  39.52°N, 75.58°W
Report Text: KILG 310851Z 00000KT 10SM SCT055 05/02 A3002 RMK AO2 SLP166 T00500017 55007
Loading
Personal Weather Stations






























Interactive Weather Map
Tropical Storm Tracking
New forecast layout! Learn more

10-Day Weather Forecast

Advertisements
Track Severe Weather on mobile